sensor_id;sensor_type;location;lat;lon;timestamp;pressure;altitude;pressure_sealevel;temperature;humidity
59971;BME280;45825;45.434;9.116;2023-02-15T00:01:20;101764.28;;;8.18;61.71
59971;BME280;45825;45.434;9.116;2023-02-15T00:03:47;101762.59;;;8.15;61.62
59971;BME280;45825;45.434;9.116;2023-02-15T00:06:14;101757.53;;;8.07;61.42
59971;BME280;45825;45.434;9.116;2023-02-15T00:08:39;101766.13;;;8.14;61.70
59971;BME280;45825;45.434;9.116;2023-02-15T00:11:09;101755.75;;;8.08;61.58
59971;BME280;45825;45.434;9.116;2023-02-15T00:13:36;101762.06;;;7.99;62.25
59971;BME280;45825;45.434;9.116;2023-02-15T00:16:03;101754.38;;;7.90;62.14
59971;BME280;45825;45.434;9.116;2023-02-15T00:18:29;101756.72;;;8.04;62.17
59971;BME280;45825;45.434;9.116;2023-02-15T00:20:55;101752.31;;;8.06;62.00
59971;BME280;45825;45.434;9.116;2023-02-15T00:23:20;101764.44;;;8.10;61.99
59971;BME280;45825;45.434;9.116;2023-02-15T00:25:45;101760.91;;;8.13;61.48
59971;BME280;45825;45.434;9.116;2023-02-15T00:28:10;101752.38;;;8.03;62.07
59971;BME280;45825;45.434;9.116;2023-02-15T00:30:36;101760.25;;;8.03;62.18
59971;BME280;45825;45.434;9.116;2023-02-15T00:33:01;101762.91;;;8.00;62.35
59971;BME280;45825;45.434;9.116;2023-02-15T00:35:26;101760.28;;;8.01;61.95
59971;BME280;45825;45.434;9.116;2023-02-15T00:37:52;101738.78;;;7.83;62.17
59971;BME280;45825;45.434;9.116;2023-02-15T00:40:17;101753.31;;;7.99;62.06
59971;BME280;45825;45.434;9.116;2023-02-15T00:42:43;101748.28;;;7.89;62.32
59971;BME280;45825;45.434;9.116;2023-02-15T00:45:08;101757.03;;;7.88;62.33
59971;BME280;45825;45.434;9.116;2023-02-15T00:47:34;101759.63;;;7.90;62.46
59971;BME280;45825;45.434;9.116;2023-02-15T00:49:59;101759.69;;;7.87;62.63
59971;BME280;45825;45.434;9.116;2023-02-15T00:52:24;101767.56;;;7.87;62.60
59971;BME280;45825;45.434;9.116;2023-02-15T00:54:50;101767.59;;;7.85;62.51
59971;BME280;45825;45.434;9.116;2023-02-15T00:57:16;101764.09;;;7.85;62.58
59971;BME280;45825;45.434;9.116;2023-02-15T00:59:41;101765.88;;;7.84;62.49
59971;BME280;45825;45.434;9.116;2023-02-15T01:02:07;101778.16;;;7.80;62.46
59971;BME280;45825;45.434;9.116;2023-02-15T01:04:32;101765.06;;;7.79;62.81
59971;BME280;45825;45.434;9.116;2023-02-15T01:06:57;101765.88;;;7.82;62.54
59971;BME280;45825;45.434;9.116;2023-02-15T01:09:23;101772.94;;;7.79;62.57
59971;BME280;45825;45.434;9.116;2023-02-15T01:11:48;101766.03;;;7.76;62.67
59971;BME280;45825;45.434;9.116;2023-02-15T01:14:13;101761.63;;;7.77;62.62
59971;BME280;45825;45.434;9.116;2023-02-15T01:16:39;101755.72;;;7.67;62.65
59971;BME280;45825;45.434;9.116;2023-02-15T01:19:05;101766.22;;;7.64;62.89
59971;BME280;45825;45.434;9.116;2023-02-15T01:21:31;101756.69;;;7.61;63.22
59971;BME280;45825;45.434;9.116;2023-02-15T01:24:00;101756.00;;;7.51;63.51
59971;BME280;45825;45.434;9.116;2023-02-15T01:26:25;101750.06;;;7.41;63.54
59971;BME280;45825;45.434;9.116;2023-02-15T01:28:50;101753.50;;;7.45;63.78
59971;BME280;45825;45.434;9.116;2023-02-15T01:31:17;101750.88;;;7.45;63.46
59971;BME280;45825;45.434;9.116;2023-02-15T01:33:43;101750.81;;;7.48;63.59
59971;BME280;45825;45.434;9.116;2023-02-15T01:36:09;101749.25;;;7.39;63.83
59971;BME280;45825;45.434;9.116;2023-02-15T01:38:35;101746.56;;;7.43;63.58
59971;BME280;45825;45.434;9.116;2023-02-15T01:41:00;101748.28;;;7.44;63.78
59971;BME280;45825;45.434;9.116;2023-02-15T01:43:47;101747.47;;;7.41;63.76
59971;BME280;45825;45.434;9.116;2023-02-15T01:46:14;101753.53;;;7.42;63.79
59971;BME280;45825;45.434;9.116;2023-02-15T01:48:50;101748.34;;;7.40;63.86
59971;BME280;45825;45.434;9.116;2023-02-15T01:51:20;101752.03;;;7.29;63.92
59971;BME280;45825;45.434;9.116;2023-02-15T01:53:53;101744.31;;;7.22;64.60
59971;BME280;45825;45.434;9.116;2023-02-15T01:56:24;101746.88;;;7.25;64.28
59971;BME280;45825;45.434;9.116;2023-02-15T01:58:54;101745.16;;;7.24;64.43
59971;BME280;45825;45.434;9.116;2023-02-15T02:01:21;101739.00;;;7.27;64.32
59971;BME280;45825;45.434;9.116;2023-02-15T02:04:10;101742.53;;;7.23;64.81
59971;BME280;45825;45.434;9.116;2023-02-15T02:06:39;101749.50;;;7.24;64.17
59971;BME280;45825;45.434;9.116;2023-02-15T02:09:04;101742.63;;;7.18;64.47
59971;BME280;45825;45.434;9.116;2023-02-15T02:11:30;101743.50;;;7.17;64.44
59971;BME280;45825;45.434;9.116;2023-02-15T02:13:56;101735.72;;;7.16;65.20
59971;BME280;45825;45.434;9.116;2023-02-15T02:16:42;101738.31;;;7.16;64.72
59971;BME280;45825;45.434;9.116;2023-02-15T02:28:09;101730.66;;;7.05;65.72
59971;BME280;45825;45.434;9.116;2023-02-15T02:30:40;101737.72;;;6.99;65.67
59971;BME280;45825;45.434;9.116;2023-02-15T02:36:22;101735.97;;;6.98;65.79
59971;BME280;45825;45.434;9.116;2023-02-15T02:38:59;101736.19;;;6.86;65.79
59971;BME280;45825;45.434;9.116;2023-02-15T02:41:41;101738.91;;;6.80;66.28
59971;BME280;45825;45.434;9.116;2023-02-15T02:44:16;101734.38;;;6.90;66.12
59971;BME280;45825;45.434;9.116;2023-02-15T02:46:50;101735.22;;;6.92;65.70
59971;BME280;45825;45.434;9.116;2023-02-15T02:49:29;101728.31;;;6.88;65.90
59971;BME280;45825;45.434;9.116;2023-02-15T02:51:59;101735.19;;;6.93;65.79
59971;BME280;45825;45.434;9.116;2023-02-15T02:54:24;101730.13;;;6.82;66.26
59971;BME280;45825;45.434;9.116;2023-02-15T02:56:51;101727.34;;;6.93;65.94
59971;BME280;45825;45.434;9.116;2023-02-15T02:59:21;101726.53;;;6.91;65.88
59971;BME280;45825;45.434;9.116;2023-02-15T03:04:35;101720.69;;;6.75;65.86
59971;BME280;45825;45.434;9.116;2023-02-15T03:07:06;101719.66;;;6.82;65.89
59971;BME280;45825;45.434;9.116;2023-02-15T03:09:38;101718.88;;;6.79;66.17
59971;BME280;45825;45.434;9.116;2023-02-15T03:12:16;101712.69;;;6.83;65.88
59971;BME280;45825;45.434;9.116;2023-02-15T03:14:44;101710.06;;;6.83;65.71
59971;BME280;45825;45.434;9.116;2023-02-15T03:17:13;101716.28;;;6.76;65.83
59971;BME280;45825;45.434;9.116;2023-02-15T03:19:40;101708.56;;;6.69;66.08
59971;BME280;45825;45.434;9.116;2023-02-15T03:22:30;101705.81;;;6.76;66.11
59971;BME280;45825;45.434;9.116;2023-02-15T03:27:39;101704.09;;;6.75;66.25
59971;BME280;45825;45.434;9.116;2023-02-15T03:30:06;101704.22;;;6.68;66.30
59971;BME280;45825;45.434;9.116;2023-02-15T03:32:34;101700.78;;;6.65;66.08
59971;BME280;45825;45.434;9.116;2023-02-15T03:35:00;101702.53;;;6.64;66.80
59971;BME280;45825;45.434;9.116;2023-02-15T03:37:39;101703.31;;;6.69;66.60
59971;BME280;45825;45.434;9.116;2023-02-15T03:40:19;101695.47;;;6.69;66.45
59971;BME280;45825;45.434;9.116;2023-02-15T03:43:11;101712.16;;;6.61;66.87
59971;BME280;45825;45.434;9.116;2023-02-15T03:45:39;101710.44;;;6.61;66.77
59971;BME280;45825;45.434;9.116;2023-02-15T03:48:24;101705.94;;;6.69;66.33
59971;BME280;45825;45.434;9.116;2023-02-15T03:50:54;101698.09;;;6.68;66.44
59971;BME280;45825;45.434;9.116;2023-02-15T03:53:39;101700.72;;;6.66;66.51
59971;BME280;45825;45.434;9.116;2023-02-15T03:56:05;101696.44;;;6.64;66.44
59971;BME280;45825;45.434;9.116;2023-02-15T03:58:30;101705.19;;;6.61;66.43
59971;BME280;45825;45.434;9.116;2023-02-15T04:04:10;101704.25;;;6.65;66.29
59971;BME280;45825;45.434;9.116;2023-02-15T04:06:38;101703.66;;;6.48;67.01
59971;BME280;45825;45.434;9.116;2023-02-15T04:09:03;101715.09;;;6.42;67.12
59971;BME280;45825;45.434;9.116;2023-02-15T04:11:47;101707.16;;;6.47;66.86
59971;BME280;45825;45.434;9.116;2023-02-15T04:14:13;101702.91;;;6.39;67.18
59971;BME280;45825;45.434;9.116;2023-02-15T04:17:08;101697.03;;;6.23;68.00
59971;BME280;45825;45.434;9.116;2023-02-15T04:19:34;101704.06;;;6.21;68.08
59971;BME280;45825;45.434;9.116;2023-02-15T04:22:18;101696.38;;;6.09;68.55
59971;BME280;45825;45.434;9.116;2023-02-15T04:25:02;101697.94;;;6.21;68.43
59971;BME280;45825;45.434;9.116;2023-02-15T04:27:45;101698.72;;;6.27;67.72
59971;BME280;45825;45.434;9.116;2023-02-15T04:30:12;101697.88;;;6.25;67.82
59971;BME280;45825;45.434;9.116;2023-02-15T04:32:38;101703.03;;;6.32;67.25
59971;BME280;45825;45.434;9.116;2023-02-15T04:35:04;101707.31;;;6.37;67.74
59971;BME280;45825;45.434;9.116;2023-02-15T04:37:30;101706.50;;;6.32;67.55
59971;BME280;45825;45.434;9.116;2023-02-15T04:39:56;101696.91;;;6.31;67.64
59971;BME280;45825;45.434;9.116;2023-02-15T04:42:24;101692.53;;;6.35;67.87
59971;BME280;45825;45.434;9.116;2023-02-15T04:44:49;101698.69;;;6.31;67.75
59971;BME280;45825;45.434;9.116;2023-02-15T04:47:14;101695.31;;;6.24;67.89
59971;BME280;45825;45.434;9.116;2023-02-15T04:49:40;101693.66;;;6.18;67.72
59971;BME280;45825;45.434;9.116;2023-02-15T04:52:05;101689.44;;;6.06;68.34
59971;BME280;45825;45.434;9.116;2023-02-15T04:54:30;101695.44;;;6.11;68.22
59971;BME280;45825;45.434;9.116;2023-02-15T04:56:56;101691.97;;;6.12;67.81
59971;BME280;45825;45.434;9.116;2023-02-15T04:59:21;101691.09;;;6.13;67.97
59971;BME280;45825;45.434;9.116;2023-02-15T05:01:46;101677.91;;;6.20;67.82
59971;BME280;45825;45.434;9.116;2023-02-15T05:04:11;101677.97;;;6.18;67.67
59971;BME280;45825;45.434;9.116;2023-02-15T05:06:37;101677.97;;;6.15;67.52
59971;BME280;45825;45.434;9.116;2023-02-15T05:09:02;101676.38;;;6.08;68.31
59971;BME280;45825;45.434;9.116;2023-02-15T05:11:28;101675.56;;;5.99;68.44
59971;BME280;45825;45.434;9.116;2023-02-15T05:13:53;101680.78;;;6.03;68.70
59971;BME280;45825;45.434;9.116;2023-02-15T05:16:18;101676.47;;;5.97;68.37
59971;BME280;45825;45.434;9.116;2023-02-15T05:18:44;101680.72;;;6.06;68.17
59971;BME280;45825;45.434;9.116;2023-02-15T05:21:09;101683.31;;;6.09;67.96
59971;BME280;45825;45.434;9.116;2023-02-15T05:23:35;101686.06;;;5.95;68.68
59971;BME280;45825;45.434;9.116;2023-02-15T05:26:00;101678.41;;;5.81;69.16
59971;BME280;45825;45.434;9.116;2023-02-15T05:28:44;101684.53;;;5.78;69.51
59971;BME280;45825;45.434;9.116;2023-02-15T05:31:13;101679.41;;;5.72;69.69
59971;BME280;45825;45.434;9.116;2023-02-15T05:33:39;101684.59;;;5.75;69.38
59971;BME280;45825;45.434;9.116;2023-02-15T05:36:05;101686.41;;;5.67;69.61
59971;BME280;45825;45.434;9.116;2023-02-15T05:38:33;101681.19;;;5.70;69.22
59971;BME280;45825;45.434;9.116;2023-02-15T05:40:59;101681.97;;;5.75;69.06
59971;BME280;45825;45.434;9.116;2023-02-15T05:43:25;101681.13;;;5.73;68.96
59971;BME280;45825;45.434;9.116;2023-02-15T05:45:52;101688.97;;;5.71;68.99
59971;BME280;45825;45.434;9.116;2023-02-15T05:48:19;101688.16;;;5.68;69.16
59971;BME280;45825;45.434;9.116;2023-02-15T05:50:45;101687.94;;;5.85;68.42
59971;BME280;45825;45.434;9.116;2023-02-15T05:53:11;101685.50;;;5.71;68.64
59971;BME280;45825;45.434;9.116;2023-02-15T05:55:40;101686.25;;;5.81;68.60
59971;BME280;45825;45.434;9.116;2023-02-15T05:58:06;101688.88;;;5.81;68.89
59971;BME280;45825;45.434;9.116;2023-02-15T06:00:31;101695.97;;;5.71;69.13
59971;BME280;45825;45.434;9.116;2023-02-15T06:02:57;101697.81;;;5.61;69.56
59971;BME280;45825;45.434;9.116;2023-02-15T06:05:22;101702.13;;;5.65;69.10
59971;BME280;45825;45.434;9.116;2023-02-15T06:07:47;101703.81;;;5.71;68.80
59971;BME280;45825;45.434;9.116;2023-02-15T06:10:13;101707.25;;;5.75;68.25
59971;BME280;45825;45.434;9.116;2023-02-15T06:12:38;101705.53;;;5.70;68.61
59971;BME280;45825;45.434;9.116;2023-02-15T06:15:04;101704.69;;;5.67;68.67
59971;BME280;45825;45.434;9.116;2023-02-15T06:17:30;101709.91;;;5.67;68.65
59971;BME280;45825;45.434;9.116;2023-02-15T06:19:55;101710.75;;;5.72;68.57
59971;BME280;45825;45.434;9.116;2023-02-15T06:22:20;101718.63;;;5.67;68.72
59971;BME280;45825;45.434;9.116;2023-02-15T06:24:47;101718.59;;;5.69;68.73
59971;BME280;45825;45.434;9.116;2023-02-15T06:27:12;101731.59;;;5.73;68.69
59971;BME280;45825;45.434;9.116;2023-02-15T06:29:38;101728.94;;;5.78;68.04
59971;BME280;45825;45.434;9.116;2023-02-15T06:32:03;101735.91;;;5.79;68.08
59971;BME280;45825;45.434;9.116;2023-02-15T06:34:29;101732.38;;;5.82;68.12
59971;BME280;45825;45.434;9.116;2023-02-15T06:36:55;101748.00;;;5.86;68.41
59971;BME280;45825;45.434;9.116;2023-02-15T06:39:20;101747.91;;;5.94;67.55
59971;BME280;45825;45.434;9.116;2023-02-15T06:41:45;101739.16;;;5.98;67.51
59971;BME280;45825;45.434;9.116;2023-02-15T06:44:10;101750.50;;;5.97;67.77
59971;BME280;45825;45.434;9.116;2023-02-15T06:46:36;101743.47;;;6.01;67.34
59971;BME280;45825;45.434;9.116;2023-02-15T06:49:01;101750.50;;;6.02;67.47
59971;BME280;45825;45.434;9.116;2023-02-15T06:51:26;101747.88;;;6.02;67.08
59971;BME280;45825;45.434;9.116;2023-02-15T06:53:52;101738.38;;;5.92;67.50
59971;BME280;45825;45.434;9.116;2023-02-15T06:56:17;101753.00;;;6.08;67.82
59971;BME280;45825;45.434;9.116;2023-02-15T06:58:42;101750.50;;;5.97;68.53
59971;BME280;45825;45.434;9.116;2023-02-15T07:01:09;101753.88;;;6.09;67.94
59971;BME280;45825;45.434;9.116;2023-02-15T07:03:35;101757.38;;;6.06;67.98
59971;BME280;45825;45.434;9.116;2023-02-15T07:06:02;101751.28;;;6.09;68.25
59971;BME280;45825;45.434;9.116;2023-02-15T07:08:28;101760.78;;;6.13;68.28
59971;BME280;45825;45.434;9.116;2023-02-15T07:10:55;101760.72;;;6.19;68.50
59971;BME280;45825;45.434;9.116;2023-02-15T07:13:40;101760.66;;;6.22;68.41
59971;BME280;45825;45.434;9.116;2023-02-15T07:16:08;101764.13;;;6.24;68.56
59971;BME280;45825;45.434;9.116;2023-02-15T07:18:33;101762.50;;;6.15;68.75
59971;BME280;45825;45.434;9.116;2023-02-15T07:20:59;101767.72;;;6.15;69.11
59971;BME280;45825;45.434;9.116;2023-02-15T07:23:24;101767.63;;;6.23;69.06
59971;BME280;45825;45.434;9.116;2023-02-15T07:25:59;101767.50;;;6.34;68.59
59971;BME280;45825;45.434;9.116;2023-02-15T07:28:24;101771.84;;;6.35;68.33
59971;BME280;45825;45.434;9.116;2023-02-15T07:30:50;101768.38;;;6.32;68.11
59971;BME280;45825;45.434;9.116;2023-02-15T07:33:15;101765.78;;;6.30;68.33
59971;BME280;45825;45.434;9.116;2023-02-15T07:35:59;101772.75;;;6.31;68.04
59971;BME280;45825;45.434;9.116;2023-02-15T07:38:30;101769.25;;;6.32;67.91
59971;BME280;45825;45.434;9.116;2023-02-15T07:40:59;101767.28;;;6.48;67.45
59971;BME280;45825;45.434;9.116;2023-02-15T07:43:25;101779.50;;;6.46;67.35
59971;BME280;45825;45.434;9.116;2023-02-15T07:45:50;101768.09;;;6.52;67.24
59971;BME280;45825;45.434;9.116;2023-02-15T07:48:16;101768.94;;;6.54;66.96
59971;BME280;45825;45.434;9.116;2023-02-15T07:50:41;101770.72;;;6.52;67.04
59971;BME280;45825;45.434;9.116;2023-02-15T07:53:06;101768.81;;;6.63;67.28
59971;BME280;45825;45.434;9.116;2023-02-15T07:55:31;101765.22;;;6.69;67.11
59971;BME280;45825;45.434;9.116;2023-02-15T07:57:57;101759.91;;;6.75;67.03
59971;BME280;45825;45.434;9.116;2023-02-15T08:00:23;101762.41;;;6.83;66.82
59971;BME280;45825;45.434;9.116;2023-02-15T08:02:54;101768.59;;;6.79;66.32
59971;BME280;45825;45.434;9.116;2023-02-15T08:05:39;101761.47;;;6.87;66.38
59971;BME280;45825;45.434;9.116;2023-02-15T08:08:06;101754.50;;;6.88;66.53
59971;BME280;45825;45.434;9.116;2023-02-15T08:10:31;101765.03;;;6.81;65.93
59971;BME280;45825;45.434;9.116;2023-02-15T08:13:15;101760.81;;;6.73;66.36
59971;BME280;45825;45.434;9.116;2023-02-15T08:15:48;101763.34;;;6.79;66.36
59971;BME280;45825;45.434;9.116;2023-02-15T08:18:13;101771.22;;;6.79;66.33
59971;BME280;45825;45.434;9.116;2023-02-15T08:20:38;101763.28;;;6.83;65.59
59971;BME280;45825;45.434;9.116;2023-02-15T08:23:04;101755.44;;;6.83;65.52
59971;BME280;45825;45.434;9.116;2023-02-15T08:25:29;101752.84;;;6.82;65.61
59971;BME280;45825;45.434;9.116;2023-02-15T08:27:54;101755.44;;;6.82;65.42
59971;BME280;45825;45.434;9.116;2023-02-15T08:30:20;101756.13;;;6.93;65.12
59971;BME280;45825;45.434;9.116;2023-02-15T08:32:45;101760.63;;;6.85;65.24
59971;BME280;45825;45.434;9.116;2023-02-15T08:35:10;101746.78;;;6.78;65.75
59971;BME280;45825;45.434;9.116;2023-02-15T08:37:36;101754.34;;;6.95;65.36
59971;BME280;45825;45.434;9.116;2023-02-15T08:40:01;101748.97;;;7.05;65.41
59971;BME280;45825;45.434;9.116;2023-02-15T08:42:27;101753.28;;;7.07;65.27
59971;BME280;45825;45.434;9.116;2023-02-15T08:44:54;101748.00;;;7.12;65.09
59971;BME280;45825;45.434;9.116;2023-02-15T08:47:19;101758.19;;;7.27;64.96
59971;BME280;45825;45.434;9.116;2023-02-15T08:49:44;101752.72;;;7.40;65.94
59971;BME280;45825;45.434;9.116;2023-02-15T08:52:10;101759.63;;;7.44;65.56
59971;BME280;45825;45.434;9.116;2023-02-15T08:54:35;101753.34;;;7.54;64.35
59971;BME280;45825;45.434;9.116;2023-02-15T08:57:00;101755.66;;;7.68;64.22
59971;BME280;45825;45.434;9.116;2023-02-15T08:59:26;101743.25;;;7.78;64.48
59971;BME280;45825;45.434;9.116;2023-02-15T09:01:52;101743.03;;;7.89;64.21
59971;BME280;45825;45.434;9.116;2023-02-15T09:04:18;101747.34;;;7.93;64.71
59971;BME280;45825;45.434;9.116;2023-02-15T09:06:46;101744.38;;;8.09;64.65
59971;BME280;45825;45.434;9.116;2023-02-15T09:09:11;101754.00;;;8.08;63.56
59971;BME280;45825;45.434;9.116;2023-02-15T09:11:40;101751.34;;;8.10;65.16
59971;BME280;45825;45.434;9.116;2023-02-15T09:14:16;101759.09;;;8.15;67.25
59971;BME280;45825;45.434;9.116;2023-02-15T09:16:44;101751.94;;;8.23;67.20
59971;BME280;45825;45.434;9.116;2023-02-15T09:19:12;101756.09;;;8.33;64.27
59971;BME280;45825;45.434;9.116;2023-02-15T09:21:37;101753.00;;;8.57;62.12
59971;BME280;45825;45.434;9.116;2023-02-15T09:24:05;101750.41;;;8.53;61.72
59971;BME280;45825;45.434;9.116;2023-02-15T09:26:33;101741.44;;;8.64;61.13
59971;BME280;45825;45.434;9.116;2023-02-15T09:29:00;101745.72;;;8.68;60.77
59971;BME280;45825;45.434;9.116;2023-02-15T09:31:28;101751.78;;;8.70;60.61
59971;BME280;45825;45.434;9.116;2023-02-15T09:33:54;101749.69;;;8.85;61.38
59971;BME280;45825;45.434;9.116;2023-02-15T09:36:22;101741.59;;;8.94;60.29
59971;BME280;45825;45.434;9.116;2023-02-15T09:38:55;101740.47;;;9.03;60.61
59971;BME280;45825;45.434;9.116;2023-02-15T09:41:36;101743.88;;;9.08;61.51
59971;BME280;45825;45.434;9.116;2023-02-15T09:47:09;101736.41;;;9.26;59.65
59971;BME280;45825;45.434;9.116;2023-02-15T09:49:41;101730.84;;;9.38;58.85
59971;BME280;45825;45.434;9.116;2023-02-15T09:52:27;101729.97;;;9.38;59.23
59971;BME280;45825;45.434;9.116;2023-02-15T09:58:07;101725.63;;;9.68;59.02
59971;BME280;45825;45.434;9.116;2023-02-15T10:03:39;101725.34;;;9.77;57.18
59971;BME280;45825;45.434;9.116;2023-02-15T10:06:14;101717.50;;;10.06;57.17
59971;BME280;45825;45.434;9.116;2023-02-15T10:17:41;101717.56;;;10.88;53.96
59971;BME280;45825;45.434;9.116;2023-02-15T10:20:16;101713.38;;;10.83;53.83
59971;BME280;45825;45.434;9.116;2023-02-15T10:23:11;101712.72;;;11.03;53.52
59971;BME280;45825;45.434;9.116;2023-02-15T10:29:09;101711.38;;;11.90;51.96
59971;BME280;45825;45.434;9.116;2023-02-15T10:31:47;101707.72;;;12.18;50.21
59971;BME280;45825;45.434;9.116;2023-02-15T10:34:28;101702.59;;;12.35;51.42
59971;BME280;45825;45.434;9.116;2023-02-15T10:37:09;101700.44;;;12.47;50.30
59971;BME280;45825;45.434;9.116;2023-02-15T10:42:36;101701.72;;;13.21;48.92
59971;BME280;45825;45.434;9.116;2023-02-15T10:45:24;101698.06;;;13.84;48.05
59971;BME280;45825;45.434;9.116;2023-02-15T10:48:13;101686.78;;;14.72;47.63
59971;BME280;45825;45.434;9.116;2023-02-15T10:50:52;101685.47;;;15.99;44.55
59971;BME280;45825;45.434;9.116;2023-02-15T10:53:52;101680.56;;;17.44;42.73
59971;BME280;45825;45.434;9.116;2023-02-15T10:56:39;101670.31;;;18.90;39.26
59971;BME280;45825;45.434;9.116;2023-02-15T10:59:39;101665.00;;;19.42;35.30
59971;BME280;45825;45.434;9.116;2023-02-15T11:02:20;101659.22;;;18.83;36.25
59971;BME280;45825;45.434;9.116;2023-02-15T11:05:01;101648.75;;;20.56;35.12
59971;BME280;45825;45.434;9.116;2023-02-15T11:07:38;101648.00;;;22.25;33.20
59971;BME280;45825;45.434;9.116;2023-02-15T11:12:57;101631.00;;;23.91;27.67
59971;BME280;45825;45.434;9.116;2023-02-15T11:15:36;101637.22;;;21.25;31.12
59971;BME280;45825;45.434;9.116;2023-02-15T11:18:13;101620.97;;;24.33;28.35
59971;BME280;45825;45.434;9.116;2023-02-15T11:21:01;101616.06;;;25.23;26.16
59971;BME280;45825;45.434;9.116;2023-02-15T11:23:28;101609.88;;;26.24;25.08
59971;BME280;45825;45.434;9.116;2023-02-15T11:26:10;101598.91;;;26.70;25.00
59971;BME280;45825;45.434;9.116;2023-02-15T11:28:42;101595.22;;;26.97;24.03
59971;BME280;45825;45.434;9.116;2023-02-15T11:31:17;101587.16;;;27.57;23.35
59971;BME280;45825;45.434;9.116;2023-02-15T11:33:47;101589.75;;;27.92;22.58
59971;BME280;45825;45.434;9.116;2023-02-15T11:36:19;101592.19;;;28.76;21.77
59971;BME280;45825;45.434;9.116;2023-02-15T11:38:50;101588.38;;;28.37;22.82
59971;BME280;45825;45.434;9.116;2023-02-15T11:41:24;101586.69;;;27.95;22.54
59971;BME280;45825;45.434;9.116;2023-02-15T11:46:20;101579.16;;;27.39;23.49
59971;BME280;45825;45.434;9.116;2023-02-15T11:48:46;101576.97;;;29.23;21.75
59971;BME280;45825;45.434;9.116;2023-02-15T11:51:14;101574.91;;;28.77;22.37
59971;BME280;45825;45.434;9.116;2023-02-15T11:53:41;101566.81;;;27.53;22.51
59971;BME280;45825;45.434;9.116;2023-02-15T11:56:14;101561.63;;;29.71;20.90
59971;BME280;45825;45.434;9.116;2023-02-15T11:58:44;101554.31;;;30.78;20.69
59971;BME280;45825;45.434;9.116;2023-02-15T12:03:58;101546.59;;;29.83;20.26
59971;BME280;45825;45.434;9.116;2023-02-15T12:06:27;101543.00;;;30.74;19.92
59971;BME280;45825;45.434;9.116;2023-02-15T12:09:13;101540.69;;;31.08;19.68
59971;BME280;45825;45.434;9.116;2023-02-15T12:11:42;101540.75;;;31.30;19.71
59971;BME280;45825;45.434;9.116;2023-02-15T12:14:10;101530.06;;;32.22;18.45
59971;BME280;45825;45.434;9.116;2023-02-15T12:16:45;101529.97;;;30.24;20.04
59971;BME280;45825;45.434;9.116;2023-02-15T12:19:33;101528.56;;;31.91;18.17
59971;BME280;45825;45.434;9.116;2023-02-15T12:22:03;101523.69;;;32.08;18.10
59971;BME280;45825;45.434;9.116;2023-02-15T12:24:36;101521.03;;;32.92;17.54
59971;BME280;45825;45.434;9.116;2023-02-15T12:27:05;101516.94;;;33.30;17.39
59971;BME280;45825;45.434;9.116;2023-02-15T12:29:43;101507.56;;;33.80;16.68
59971;BME280;45825;45.434;9.116;2023-02-15T12:32:17;101501.44;;;34.18;16.64
59971;BME280;45825;45.434;9.116;2023-02-15T12:34:43;101502.75;;;29.94;19.28
59971;BME280;45825;45.434;9.116;2023-02-15T12:37:37;101495.97;;;33.17;17.02
59971;BME280;45825;45.434;9.116;2023-02-15T12:40:20;101484.13;;;32.05;17.80
59971;BME280;45825;45.434;9.116;2023-02-15T12:42:46;101484.03;;;32.63;17.34
59971;BME280;45825;45.434;9.116;2023-02-15T12:45:32;101484.69;;;33.47;16.96
59971;BME280;45825;45.434;9.116;2023-02-15T12:48:18;101484.09;;;28.66;19.44
59971;BME280;45825;45.434;9.116;2023-02-15T12:50:49;101476.25;;;31.67;18.05
59971;BME280;45825;45.434;9.116;2023-02-15T12:53:16;101467.47;;;33.33;16.54
59971;BME280;45825;45.434;9.116;2023-02-15T12:55:58;101466.19;;;33.90;15.90
59971;BME280;45825;45.434;9.116;2023-02-15T12:58:26;101457.13;;;32.95;16.08
59971;BME280;45825;45.434;9.116;2023-02-15T13:01:18;101455.28;;;33.36;16.04
59971;BME280;45825;45.434;9.116;2023-02-15T13:04:04;101452.31;;;33.98;15.62
59971;BME280;45825;45.434;9.116;2023-02-15T13:06:35;101456.53;;;33.13;16.44
59971;BME280;45825;45.434;9.116;2023-02-15T13:09:15;101448.78;;;33.37;16.12
59971;BME280;45825;45.434;9.116;2023-02-15T13:11:43;101439.78;;;33.43;16.98
59971;BME280;45825;45.434;9.116;2023-02-15T13:14:21;101430.91;;;34.67;15.87
59971;BME280;45825;45.434;9.116;2023-02-15T13:16:50;101430.53;;;34.64;15.67
59971;BME280;45825;45.434;9.116;2023-02-15T13:19:26;101426.28;;;34.68;15.57
59971;BME280;45825;45.434;9.116;2023-02-15T13:21:54;101427.06;;;34.36;15.28
59971;BME280;45825;45.434;9.116;2023-02-15T13:24:29;101421.72;;;34.55;15.51
59971;BME280;45825;45.434;9.116;2023-02-15T13:26:58;101422.50;;;34.69;14.91
59971;BME280;45825;45.434;9.116;2023-02-15T13:29:32;101411.97;;;34.73;15.23
59971;BME280;45825;45.434;9.116;2023-02-15T13:32:06;101421.50;;;32.96;16.82
59971;BME280;45825;45.434;9.116;2023-02-15T13:34:35;101426.09;;;32.96;16.62
59971;BME280;45825;45.434;9.116;2023-02-15T13:40:08;101415.34;;;34.68;14.73
59971;BME280;45825;45.434;9.116;2023-02-15T13:42:44;101410.78;;;31.90;16.56
59971;BME280;45825;45.434;9.116;2023-02-15T13:48:15;101404.88;;;32.29;16.85
59971;BME280;45825;45.434;9.116;2023-02-15T13:57:05;101398.44;;;27.94;20.03
59971;BME280;45825;45.434;9.116;2023-02-15T13:59:57;101392.38;;;27.00;20.72
59971;BME280;45825;45.434;9.116;2023-02-15T14:19:13;101370.47;;;33.98;15.28
59971;BME280;45825;45.434;9.116;2023-02-15T14:26:59;101368.56;;;34.51;14.96
59971;BME280;45825;45.434;9.116;2023-02-15T14:32:16;101359.91;;;35.44;13.88
59971;BME280;45825;45.434;9.116;2023-02-15T14:34:56;101363.44;;;35.00;14.26
59971;BME280;45825;45.434;9.116;2023-02-15T14:46:26;101364.06;;;32.98;14.91
59971;BME280;45825;45.434;9.116;2023-02-15T14:49:04;101364.09;;;30.49;16.62
59971;BME280;45825;45.434;9.116;2023-02-15T14:59:25;101375.84;;;22.52;23.95
59971;BME280;45825;45.434;9.116;2023-02-15T15:01:57;101365.56;;;21.95;24.33